sensor_id;sensor_type;location;lat;lon;timestamp;P1;durP1;ratioP1;P2;durP2;ratioP2
27985;SDS011;15453;53.692;10.168;2023-08-07T00:01:24;5.75;;;1.80;;
27985;SDS011;15453;53.692;10.168;2023-08-07T00:03:50;4.20;;;1.65;;
27985;SDS011;15453;53.692;10.168;2023-08-07T00:06:15;2.83;;;1.45;;
27985;SDS011;15453;53.692;10.168;2023-08-07T00:08:40;5.63;;;1.58;;
27985;SDS011;15453;53.692;10.168;2023-08-07T00:11:06;2.58;;;1.58;;
27985;SDS011;15453;53.692;10.168;2023-08-07T00:13:35;2.35;;;1.77;;
27985;SDS011;15453;53.692;10.168;2023-08-07T00:16:00;2.78;;;1.58;;
27985;SDS011;15453;53.692;10.168;2023-08-07T00:18:26;3.08;;;1.52;;
27985;SDS011;15453;53.692;10.168;2023-08-07T00:20:52;3.72;;;1.70;;
27985;SDS011;15453;53.692;10.168;2023-08-07T00:23:17;5.78;;;1.80;;
27985;SDS011;15453;53.692;10.168;2023-08-07T00:25:42;2.25;;;1.40;;
27985;SDS011;15453;53.692;10.168;2023-08-07T00:28:07;3.55;;;1.50;;
27985;SDS011;15453;53.692;10.168;2023-08-07T00:30:33;3.95;;;1.90;;
27985;SDS011;15453;53.692;10.168;2023-08-07T00:32:58;4.55;;;1.60;;
27985;SDS011;15453;53.692;10.168;2023-08-07T00:35:23;2.58;;;1.60;;
27985;SDS011;15453;53.692;10.168;2023-08-07T00:37:48;3.63;;;1.60;;
27985;SDS011;15453;53.692;10.168;2023-08-07T00:40:14;3.67;;;1.60;;
27985;SDS011;15453;53.692;10.168;2023-08-07T00:42:39;2.90;;;1.42;;
27985;SDS011;15453;53.692;10.168;2023-08-07T00:45:04;3.75;;;1.50;;
27985;SDS011;15453;53.692;10.168;2023-08-07T00:47:30;2.15;;;1.30;;
27985;SDS011;15453;53.692;10.168;2023-08-07T00:49:56;2.70;;;1.60;;
27985;SDS011;15453;53.692;10.168;2023-08-07T00:52:23;3.90;;;1.65;;
27985;SDS011;15453;53.692;10.168;2023-08-07T00:54:49;2.03;;;1.30;;
27985;SDS011;15453;53.692;10.168;2023-08-07T00:57:14;2.40;;;1.38;;
27985;SDS011;15453;53.692;10.168;2023-08-07T00:59:40;5.32;;;1.70;;
27985;SDS011;15453;53.692;10.168;2023-08-07T01:02:07;2.17;;;1.30;;
27985;SDS011;15453;53.692;10.168;2023-08-07T01:04:32;3.17;;;1.52;;
27985;SDS011;15453;53.692;10.168;2023-08-07T01:06:57;2.97;;;1.33;;
27985;SDS011;15453;53.692;10.168;2023-08-07T01:09:23;2.30;;;1.33;;
27985;SDS011;15453;53.692;10.168;2023-08-07T01:11:57;2.35;;;1.30;;
27985;SDS011;15453;53.692;10.168;2023-08-07T01:15:21;2.37;;;1.77;;
27985;SDS011;15453;53.692;10.168;2023-08-07T01:17:38;3.05;;;1.48;;
27985;SDS011;15453;53.692;10.168;2023-08-07T01:20:04;1.73;;;1.10;;
27985;SDS011;15453;53.692;10.168;2023-08-07T01:22:30;2.88;;;1.42;;
27985;SDS011;15453;53.692;10.168;2023-08-07T01:24:55;4.53;;;1.30;;
27985;SDS011;15453;53.692;10.168;2023-08-07T01:27:24;3.65;;;1.42;;
27985;SDS011;15453;53.692;10.168;2023-08-07T01:35:41;2.65;;;1.40;;
27985;SDS011;15453;53.692;10.168;2023-08-07T01:38:08;2.42;;;1.20;;
27985;SDS011;15453;53.692;10.168;2023-08-07T01:40:35;2.08;;;1.33;;
27985;SDS011;15453;53.692;10.168;2023-08-07T01:43:03;5.85;;;1.20;;
27985;SDS011;15453;53.692;10.168;2023-08-07T01:45:29;3.70;;;1.60;;
27985;SDS011;15453;53.692;10.168;2023-08-07T01:47:54;5.78;;;1.55;;
27985;SDS011;15453;53.692;10.168;2023-08-07T01:50:20;4.20;;;1.10;;
27985;SDS011;15453;53.692;10.168;2023-08-07T01:52:46;2.97;;;1.45;;
27985;SDS011;15453;53.692;10.168;2023-08-07T01:55:12;3.78;;;1.45;;
27985;SDS011;15453;53.692;10.168;2023-08-07T01:57:38;3.90;;;1.40;;
27985;SDS011;15453;53.692;10.168;2023-08-07T02:00:04;5.50;;;1.65;;
27985;SDS011;15453;53.692;10.168;2023-08-07T02:02:30;2.20;;;1.13;;
27985;SDS011;15453;53.692;10.168;2023-08-07T02:04:55;1.80;;;1.15;;
27985;SDS011;15453;53.692;10.168;2023-08-07T02:07:20;3.50;;;1.40;;
27985;SDS011;15453;53.692;10.168;2023-08-07T02:09:46;3.10;;;1.35;;
27985;SDS011;15453;53.692;10.168;2023-08-07T02:12:11;4.32;;;1.30;;
27985;SDS011;15453;53.692;10.168;2023-08-07T02:14:36;2.08;;;1.13;;
27985;SDS011;15453;53.692;10.168;2023-08-07T02:17:02;2.97;;;1.25;;
27985;SDS011;15453;53.692;10.168;2023-08-07T02:19:27;2.28;;;1.30;;
27985;SDS011;15453;53.692;10.168;2023-08-07T02:21:52;1.63;;;1.10;;
27985;SDS011;15453;53.692;10.168;2023-08-07T02:24:18;1.73;;;1.25;;
27985;SDS011;15453;53.692;10.168;2023-08-07T02:26:44;2.20;;;1.10;;
27985;SDS011;15453;53.692;10.168;2023-08-07T02:29:09;1.70;;;1.20;;
27985;SDS011;15453;53.692;10.168;2023-08-07T02:31:35;1.70;;;1.00;;
27985;SDS011;15453;53.692;10.168;2023-08-07T02:34:00;4.90;;;1.40;;
27985;SDS011;15453;53.692;10.168;2023-08-07T02:36:25;1.58;;;1.13;;
27985;SDS011;15453;53.692;10.168;2023-08-07T02:38:51;2.83;;;1.15;;
27985;SDS011;15453;53.692;10.168;2023-08-07T02:41:16;3.13;;;1.10;;
27985;SDS011;15453;53.692;10.168;2023-08-07T02:43:42;2.60;;;1.40;;
27985;SDS011;15453;53.692;10.168;2023-08-07T02:46:07;1.70;;;0.93;;
27985;SDS011;15453;53.692;10.168;2023-08-07T02:48:33;1.75;;;1.10;;
27985;SDS011;15453;53.692;10.168;2023-08-07T02:50:58;2.00;;;1.30;;
27985;SDS011;15453;53.692;10.168;2023-08-07T02:53:23;3.80;;;1.33;;
27985;SDS011;15453;53.692;10.168;2023-08-07T02:55:48;2.40;;;1.30;;
27985;SDS011;15453;53.692;10.168;2023-08-07T02:58:14;2.28;;;1.20;;
27985;SDS011;15453;53.692;10.168;2023-08-07T03:00:39;4.57;;;1.45;;
27985;SDS011;15453;53.692;10.168;2023-08-07T03:03:04;3.00;;;1.23;;
27985;SDS011;15453;53.692;10.168;2023-08-07T03:05:29;1.42;;;1.00;;
27985;SDS011;15453;53.692;10.168;2023-08-07T03:07:54;3.03;;;1.30;;
27985;SDS011;15453;53.692;10.168;2023-08-07T03:10:20;4.32;;;1.65;;
27985;SDS011;15453;53.692;10.168;2023-08-07T03:12:45;2.97;;;1.20;;
27985;SDS011;15453;53.692;10.168;2023-08-07T03:15:10;4.25;;;1.50;;
27985;SDS011;15453;53.692;10.168;2023-08-07T03:17:36;2.05;;;1.20;;
27985;SDS011;15453;53.692;10.168;2023-08-07T03:20:01;4.10;;;1.50;;
27985;SDS011;15453;53.692;10.168;2023-08-07T03:22:28;3.20;;;1.23;;
27985;SDS011;15453;53.692;10.168;2023-08-07T03:24:54;6.00;;;1.50;;
27985;SDS011;15453;53.692;10.168;2023-08-07T03:27:19;3.83;;;1.63;;
27985;SDS011;15453;53.692;10.168;2023-08-07T03:29:44;3.70;;;1.38;;
27985;SDS011;15453;53.692;10.168;2023-08-07T03:32:09;3.17;;;1.38;;
27985;SDS011;15453;53.692;10.168;2023-08-07T03:34:35;2.30;;;1.30;;
27985;SDS011;15453;53.692;10.168;2023-08-07T03:37:01;1.77;;;1.27;;
27985;SDS011;15453;53.692;10.168;2023-08-07T03:39:27;2.60;;;1.27;;
27985;SDS011;15453;53.692;10.168;2023-08-07T03:41:52;3.28;;;1.45;;
27985;SDS011;15453;53.692;10.168;2023-08-07T03:44:17;3.20;;;1.40;;
27985;SDS011;15453;53.692;10.168;2023-08-07T03:46:42;3.80;;;1.35;;
27985;SDS011;15453;53.692;10.168;2023-08-07T03:49:08;3.25;;;1.50;;
27985;SDS011;15453;53.692;10.168;2023-08-07T03:51:33;1.85;;;1.27;;
27985;SDS011;15453;53.692;10.168;2023-08-07T03:53:58;2.00;;;1.35;;
27985;SDS011;15453;53.692;10.168;2023-08-07T03:56:23;3.80;;;1.48;;
27985;SDS011;15453;53.692;10.168;2023-08-07T03:58:49;4.15;;;1.67;;
27985;SDS011;15453;53.692;10.168;2023-08-07T04:01:15;7.25;;;2.10;;
27985;SDS011;15453;53.692;10.168;2023-08-07T04:03:41;5.07;;;1.58;;
27985;SDS011;15453;53.692;10.168;2023-08-07T04:06:06;3.83;;;1.50;;
27985;SDS011;15453;53.692;10.168;2023-08-07T04:08:31;2.55;;;1.05;;
27985;SDS011;15453;53.692;10.168;2023-08-07T04:11:03;2.15;;;1.42;;
27985;SDS011;15453;53.692;10.168;2023-08-07T04:13:30;2.45;;;1.27;;
27985;SDS011;15453;53.692;10.168;2023-08-07T04:15:56;3.20;;;1.63;;
27985;SDS011;15453;53.692;10.168;2023-08-07T04:18:21;3.40;;;1.23;;
27985;SDS011;15453;53.692;10.168;2023-08-07T04:20:51;5.38;;;2.00;;
27985;SDS011;15453;53.692;10.168;2023-08-07T04:23:17;3.83;;;1.50;;
27985;SDS011;15453;53.692;10.168;2023-08-07T04:25:43;5.20;;;1.92;;
27985;SDS011;15453;53.692;10.168;2023-08-07T04:28:11;3.10;;;1.60;;
27985;SDS011;15453;53.692;10.168;2023-08-07T04:30:36;4.20;;;1.80;;
27985;SDS011;15453;53.692;10.168;2023-08-07T04:33:02;3.95;;;1.52;;
27985;SDS011;15453;53.692;10.168;2023-08-07T04:35:27;5.38;;;1.60;;
27985;SDS011;15453;53.692;10.168;2023-08-07T04:37:52;3.30;;;1.65;;
27985;SDS011;15453;53.692;10.168;2023-08-07T04:40:18;5.18;;;1.70;;
27985;SDS011;15453;53.692;10.168;2023-08-07T04:42:43;3.03;;;1.60;;
27985;SDS011;15453;53.692;10.168;2023-08-07T04:45:08;3.78;;;1.58;;
27985;SDS011;15453;53.692;10.168;2023-08-07T04:47:34;3.53;;;1.45;;
27985;SDS011;15453;53.692;10.168;2023-08-07T04:50:00;5.80;;;1.70;;
27985;SDS011;15453;53.692;10.168;2023-08-07T04:52:25;4.43;;;1.90;;
27985;SDS011;15453;53.692;10.168;2023-08-07T04:54:50;4.63;;;1.90;;
27985;SDS011;15453;53.692;10.168;2023-08-07T04:57:15;7.82;;;1.80;;
27985;SDS011;15453;53.692;10.168;2023-08-07T04:59:40;7.13;;;1.85;;
27985;SDS011;15453;53.692;10.168;2023-08-07T05:02:06;3.65;;;1.58;;
27985;SDS011;15453;53.692;10.168;2023-08-07T05:04:31;8.45;;;2.35;;
27985;SDS011;15453;53.692;10.168;2023-08-07T05:06:56;6.70;;;1.83;;
27985;SDS011;15453;53.692;10.168;2023-08-07T05:09:21;3.90;;;1.55;;
27985;SDS011;15453;53.692;10.168;2023-08-07T05:11:47;3.42;;;1.83;;
27985;SDS011;15453;53.692;10.168;2023-08-07T05:14:13;8.20;;;2.25;;
27985;SDS011;15453;53.692;10.168;2023-08-07T05:16:41;5.50;;;1.83;;
27985;SDS011;15453;53.692;10.168;2023-08-07T05:19:07;4.50;;;1.98;;
27985;SDS011;15453;53.692;10.168;2023-08-07T05:21:32;4.47;;;1.55;;
27985;SDS011;15453;53.692;10.168;2023-08-07T05:23:57;7.95;;;1.77;;
27985;SDS011;15453;53.692;10.168;2023-08-07T05:26:22;6.82;;;1.77;;
27985;SDS011;15453;53.692;10.168;2023-08-07T05:28:48;10.30;;;1.83;;
27985;SDS011;15453;53.692;10.168;2023-08-07T05:31:13;6.18;;;1.50;;
27985;SDS011;15453;53.692;10.168;2023-08-07T05:33:38;7.60;;;2.00;;
27985;SDS011;15453;53.692;10.168;2023-08-07T05:36:03;6.63;;;1.88;;
27985;SDS011;15453;53.692;10.168;2023-08-07T05:38:31;4.35;;;1.60;;
27985;SDS011;15453;53.692;10.168;2023-08-07T05:40:56;8.15;;;1.88;;
27985;SDS011;15453;53.692;10.168;2023-08-07T05:43:21;7.75;;;2.03;;
27985;SDS011;15453;53.692;10.168;2023-08-07T05:45:47;3.85;;;1.80;;
27985;SDS011;15453;53.692;10.168;2023-08-07T05:48:13;5.07;;;1.77;;
27985;SDS011;15453;53.692;10.168;2023-08-07T05:50:39;7.45;;;1.95;;
27985;SDS011;15453;53.692;10.168;2023-08-07T05:53:05;5.50;;;2.00;;
27985;SDS011;15453;53.692;10.168;2023-08-07T05:55:31;6.57;;;2.05;;
27985;SDS011;15453;53.692;10.168;2023-08-07T05:57:56;6.53;;;2.38;;
27985;SDS011;15453;53.692;10.168;2023-08-07T06:00:21;7.07;;;2.13;;
27985;SDS011;15453;53.692;10.168;2023-08-07T06:02:46;10.25;;;2.38;;
27985;SDS011;15453;53.692;10.168;2023-08-07T06:05:12;8.63;;;2.40;;
27985;SDS011;15453;53.692;10.168;2023-08-07T06:07:39;12.32;;;2.20;;
27985;SDS011;15453;53.692;10.168;2023-08-07T06:10:04;5.70;;;1.67;;
27985;SDS011;15453;53.692;10.168;2023-08-07T06:12:31;13.00;;;2.38;;
27985;SDS011;15453;53.692;10.168;2023-08-07T06:14:57;6.40;;;1.88;;
27985;SDS011;15453;53.692;10.168;2023-08-07T06:17:25;7.07;;;2.03;;
27985;SDS011;15453;53.692;10.168;2023-08-07T06:19:51;9.13;;;2.58;;
27985;SDS011;15453;53.692;10.168;2023-08-07T06:22:17;9.38;;;2.72;;
27985;SDS011;15453;53.692;10.168;2023-08-07T06:24:42;9.77;;;2.67;;
27985;SDS011;15453;53.692;10.168;2023-08-07T06:27:07;16.88;;;2.80;;
27985;SDS011;15453;53.692;10.168;2023-08-07T06:29:33;6.53;;;2.30;;
27985;SDS011;15453;53.692;10.168;2023-08-07T06:31:58;12.98;;;2.65;;
27985;SDS011;15453;53.692;10.168;2023-08-07T06:34:23;8.38;;;2.50;;
27985;SDS011;15453;53.692;10.168;2023-08-07T06:36:49;10.63;;;2.75;;
27985;SDS011;15453;53.692;10.168;2023-08-07T06:39:14;13.18;;;2.83;;
27985;SDS011;15453;53.692;10.168;2023-08-07T06:41:39;11.25;;;3.38;;
27985;SDS011;15453;53.692;10.168;2023-08-07T06:44:05;10.35;;;2.85;;
27985;SDS011;15453;53.692;10.168;2023-08-07T06:46:30;11.00;;;2.53;;
27985;SDS011;15453;53.692;10.168;2023-08-07T06:48:55;13.55;;;2.70;;
27985;SDS011;15453;53.692;10.168;2023-08-07T06:51:20;11.18;;;2.90;;
27985;SDS011;15453;53.692;10.168;2023-08-07T06:53:46;12.35;;;2.83;;
27985;SDS011;15453;53.692;10.168;2023-08-07T06:56:11;9.80;;;3.22;;
27985;SDS011;15453;53.692;10.168;2023-08-07T06:58:36;11.43;;;2.95;;
27985;SDS011;15453;53.692;10.168;2023-08-07T07:01:02;12.25;;;3.10;;
27985;SDS011;15453;53.692;10.168;2023-08-07T07:03:27;11.85;;;3.28;;
27985;SDS011;15453;53.692;10.168;2023-08-07T07:05:52;12.18;;;3.63;;
27985;SDS011;15453;53.692;10.168;2023-08-07T07:08:17;15.20;;;3.30;;
27985;SDS011;15453;53.692;10.168;2023-08-07T07:10:42;9.30;;;2.70;;
27985;SDS011;15453;53.692;10.168;2023-08-07T07:13:08;10.90;;;3.00;;
27985;SDS011;15453;53.692;10.168;2023-08-07T07:15:34;13.07;;;4.15;;
27985;SDS011;15453;53.692;10.168;2023-08-07T07:18:00;15.52;;;4.50;;
27985;SDS011;15453;53.692;10.168;2023-08-07T07:20:26;12.88;;;4.60;;
27985;SDS011;15453;53.692;10.168;2023-08-07T07:22:51;11.30;;;3.28;;
27985;SDS011;15453;53.692;10.168;2023-08-07T07:25:17;10.43;;;3.47;;
27985;SDS011;15453;53.692;10.168;2023-08-07T07:27:42;18.55;;;4.03;;
27985;SDS011;15453;53.692;10.168;2023-08-07T07:30:07;10.30;;;3.38;;
27985;SDS011;15453;53.692;10.168;2023-08-07T07:32:33;16.25;;;3.83;;
27985;SDS011;15453;53.692;10.168;2023-08-07T07:34:58;11.88;;;3.33;;
27985;SDS011;15453;53.692;10.168;2023-08-07T07:37:24;16.85;;;3.92;;
27985;SDS011;15453;53.692;10.168;2023-08-07T07:39:49;13.75;;;3.35;;
27985;SDS011;15453;53.692;10.168;2023-08-07T07:42:14;11.95;;;3.50;;
27985;SDS011;15453;53.692;10.168;2023-08-07T07:44:39;12.90;;;3.53;;
27985;SDS011;15453;53.692;10.168;2023-08-07T07:47:05;9.82;;;3.22;;
27985;SDS011;15453;53.692;10.168;2023-08-07T07:49:32;14.60;;;3.58;;
27985;SDS011;15453;53.692;10.168;2023-08-07T07:51:59;9.30;;;3.38;;
27985;SDS011;15453;53.692;10.168;2023-08-07T07:54:24;11.85;;;3.70;;
27985;SDS011;15453;53.692;10.168;2023-08-07T07:56:50;14.30;;;3.60;;
27985;SDS011;15453;53.692;10.168;2023-08-07T07:59:15;11.77;;;3.58;;
27985;SDS011;15453;53.692;10.168;2023-08-07T08:01:41;18.55;;;3.63;;
27985;SDS011;15453;53.692;10.168;2023-08-07T08:04:06;11.48;;;3.22;;
27985;SDS011;15453;53.692;10.168;2023-08-07T08:06:31;8.88;;;2.95;;
27985;SDS011;15453;53.692;10.168;2023-08-07T08:08:57;15.50;;;3.78;;
27985;SDS011;15453;53.692;10.168;2023-08-07T08:11:22;9.68;;;2.88;;
27985;SDS011;15453;53.692;10.168;2023-08-07T08:13:47;11.75;;;3.42;;
27985;SDS011;15453;53.692;10.168;2023-08-07T08:16:13;12.63;;;3.72;;
27985;SDS011;15453;53.692;10.168;2023-08-07T08:18:38;12.27;;;3.45;;
27985;SDS011;15453;53.692;10.168;2023-08-07T08:21:03;14.25;;;3.40;;
27985;SDS011;15453;53.692;10.168;2023-08-07T08:23:28;9.25;;;2.70;;
27985;SDS011;15453;53.692;10.168;2023-08-07T08:25:54;10.63;;;2.97;;
27985;SDS011;15453;53.692;10.168;2023-08-07T08:28:19;10.32;;;3.15;;
27985;SDS011;15453;53.692;10.168;2023-08-07T08:30:44;11.20;;;3.28;;
27985;SDS011;15453;53.692;10.168;2023-08-07T08:33:10;9.00;;;3.00;;
27985;SDS011;15453;53.692;10.168;2023-08-07T08:35:38;13.52;;;3.78;;
27985;SDS011;15453;53.692;10.168;2023-08-07T08:38:03;12.35;;;3.35;;
27985;SDS011;15453;53.692;10.168;2023-08-07T08:40:29;9.82;;;3.10;;
27985;SDS011;15453;53.692;10.168;2023-08-07T08:42:55;11.07;;;3.38;;
27985;SDS011;15453;53.692;10.168;2023-08-07T08:45:23;16.02;;;3.08;;
27985;SDS011;15453;53.692;10.168;2023-08-07T08:47:51;16.02;;;3.60;;
27985;SDS011;15453;53.692;10.168;2023-08-07T08:50:19;12.75;;;3.35;;
27985;SDS011;15453;53.692;10.168;2023-08-07T08:52:45;12.10;;;2.95;;
27985;SDS011;15453;53.692;10.168;2023-08-07T08:55:11;9.75;;;3.22;;
27985;SDS011;15453;53.692;10.168;2023-08-07T08:57:38;12.27;;;3.35;;
27985;SDS011;15453;53.692;10.168;2023-08-07T09:00:05;13.73;;;3.97;;
27985;SDS011;15453;53.692;10.168;2023-08-07T09:02:41;10.07;;;3.03;;
27985;SDS011;15453;53.692;10.168;2023-08-07T09:05:07;13.95;;;3.65;;
27985;SDS011;15453;53.692;10.168;2023-08-07T09:07:32;14.70;;;3.40;;
27985;SDS011;15453;53.692;10.168;2023-08-07T09:09:58;9.82;;;3.05;;
27985;SDS011;15453;53.692;10.168;2023-08-07T09:12:26;14.55;;;3.53;;
27985;SDS011;15453;53.692;10.168;2023-08-07T09:14:55;12.10;;;3.72;;
27985;SDS011;15453;53.692;10.168;2023-08-07T09:17:27;13.13;;;3.65;;
27985;SDS011;15453;53.692;10.168;2023-08-07T09:19:54;15.35;;;3.78;;
27985;SDS011;15453;53.692;10.168;2023-08-07T09:22:19;14.98;;;3.95;;
27985;SDS011;15453;53.692;10.168;2023-08-07T09:24:45;17.58;;;4.65;;
27985;SDS011;15453;53.692;10.168;2023-08-07T09:27:10;10.32;;;3.80;;
27985;SDS011;15453;53.692;10.168;2023-08-07T09:29:36;10.25;;;2.90;;
27985;SDS011;15453;53.692;10.168;2023-08-07T09:32:08;14.65;;;5.35;;
27985;SDS011;15453;53.692;10.168;2023-08-07T09:34:33;15.30;;;4.28;;
27985;SDS011;15453;53.692;10.168;2023-08-07T09:36:59;11.90;;;3.13;;
27985;SDS011;15453;53.692;10.168;2023-08-07T09:39:24;12.50;;;3.45;;
27985;SDS011;15453;53.692;10.168;2023-08-07T09:41:53;9.40;;;3.30;;
27985;SDS011;15453;53.692;10.168;2023-08-07T09:44:18;10.10;;;2.95;;
27985;SDS011;15453;53.692;10.168;2023-08-07T09:46:43;11.85;;;3.10;;
27985;SDS011;15453;53.692;10.168;2023-08-07T09:49:09;10.43;;;3.22;;
27985;SDS011;15453;53.692;10.168;2023-08-07T09:51:41;10.00;;;2.70;;
27985;SDS011;15453;53.692;10.168;2023-08-07T09:54:08;13.20;;;3.35;;
27985;SDS011;15453;53.692;10.168;2023-08-07T09:56:34;10.73;;;3.38;;
27985;SDS011;15453;53.692;10.168;2023-08-07T09:59:00;10.55;;;3.38;;
27985;SDS011;15453;53.692;10.168;2023-08-07T10:01:25;15.32;;;3.72;;
27985;SDS011;15453;53.692;10.168;2023-08-07T10:03:50;15.02;;;4.00;;
27985;SDS011;15453;53.692;10.168;2023-08-07T10:06:17;13.65;;;3.65;;
27985;SDS011;15453;53.692;10.168;2023-08-07T10:08:44;16.50;;;3.65;;
27985;SDS011;15453;53.692;10.168;2023-08-07T10:11:11;14.50;;;3.47;;
27985;SDS011;15453;53.692;10.168;2023-08-07T10:13:37;13.23;;;3.80;;
27985;SDS011;15453;53.692;10.168;2023-08-07T10:16:02;13.25;;;3.78;;
27985;SDS011;15453;53.692;10.168;2023-08-07T10:18:28;13.45;;;3.28;;
27985;SDS011;15453;53.692;10.168;2023-08-07T10:20:53;8.23;;;2.60;;
27985;SDS011;15453;53.692;10.168;2023-08-07T10:23:19;18.27;;;3.50;;
27985;SDS011;15453;53.692;10.168;2023-08-07T10:25:48;11.43;;;3.63;;
27985;SDS011;15453;53.692;10.168;2023-08-07T10:28:16;14.88;;;3.45;;
27985;SDS011;15453;53.692;10.168;2023-08-07T10:30:43;9.35;;;2.60;;
27985;SDS011;15453;53.692;10.168;2023-08-07T10:33:09;10.82;;;2.85;;
27985;SDS011;15453;53.692;10.168;2023-08-07T10:35:36;10.65;;;3.40;;
27985;SDS011;15453;53.692;10.168;2023-08-07T10:38:11;12.45;;;3.85;;
27985;SDS011;15453;53.692;10.168;2023-08-07T10:43:24;10.35;;;3.30;;
27985;SDS011;15453;53.692;10.168;2023-08-07T10:45:50;10.88;;;3.08;;
27985;SDS011;15453;53.692;10.168;2023-08-07T10:48:18;12.98;;;3.15;;
27985;SDS011;15453;53.692;10.168;2023-08-07T10:50:51;10.30;;;2.95;;
27985;SDS011;15453;53.692;10.168;2023-08-07T10:56:10;11.70;;;3.30;;
27985;SDS011;15453;53.692;10.168;2023-08-07T10:58:42;12.55;;;3.03;;
27985;SDS011;15453;53.692;10.168;2023-08-07T11:03:50;12.40;;;3.33;;
27985;SDS011;15453;53.692;10.168;2023-08-07T11:06:17;11.40;;;2.50;;
27985;SDS011;15453;53.692;10.168;2023-08-07T11:08:46;9.02;;;3.38;;
27985;SDS011;15453;53.692;10.168;2023-08-07T11:11:13;12.95;;;2.95;;
27985;SDS011;15453;53.692;10.168;2023-08-07T11:13:38;21.65;;;2.92;;
27985;SDS011;15453;53.692;10.168;2023-08-07T11:16:04;12.57;;;2.85;;
27985;SDS011;15453;53.692;10.168;2023-08-07T11:18:30;10.63;;;3.40;;
27985;SDS011;15453;53.692;10.168;2023-08-07T11:20:56;11.52;;;2.88;;
27985;SDS011;15453;53.692;10.168;2023-08-07T11:23:24;14.00;;;3.10;;
27985;SDS011;15453;53.692;10.168;2023-08-07T11:25:50;11.75;;;2.63;;
27985;SDS011;15453;53.692;10.168;2023-08-07T11:28:20;9.63;;;3.10;;
27985;SDS011;15453;53.692;10.168;2023-08-07T11:30:49;10.02;;;2.47;;
27985;SDS011;15453;53.692;10.168;2023-08-07T11:33:20;12.07;;;2.95;;
27985;SDS011;15453;53.692;10.168;2023-08-07T11:35:46;10.43;;;3.05;;
27985;SDS011;15453;53.692;10.168;2023-08-07T11:38:12;10.50;;;2.88;;
27985;SDS011;15453;53.692;10.168;2023-08-07T11:40:37;8.50;;;2.55;;
27985;SDS011;15453;53.692;10.168;2023-08-07T11:43:02;6.88;;;2.25;;
27985;SDS011;15453;53.692;10.168;2023-08-07T11:45:28;9.43;;;2.22;;
27985;SDS011;15453;53.692;10.168;2023-08-07T11:47:54;8.38;;;2.25;;
27985;SDS011;15453;53.692;10.168;2023-08-07T11:50:22;7.93;;;2.45;;
27985;SDS011;15453;53.692;10.168;2023-08-07T11:52:47;7.95;;;2.60;;
27985;SDS011;15453;53.692;10.168;2023-08-07T11:55:14;9.52;;;2.35;;
27985;SDS011;15453;53.692;10.168;2023-08-07T11:57:40;10.60;;;2.55;;
27985;SDS011;15453;53.692;10.168;2023-08-07T12:00:07;12.05;;;4.38;;
27985;SDS011;15453;53.692;10.168;2023-08-07T12:02:38;13.75;;;3.53;;
27985;SDS011;15453;53.692;10.168;2023-08-07T12:05:07;12.25;;;3.17;;
27985;SDS011;15453;53.692;10.168;2023-08-07T12:07:35;7.82;;;2.55;;
27985;SDS011;15453;53.692;10.168;2023-08-07T12:10:02;7.57;;;2.70;;
27985;SDS011;15453;53.692;10.168;2023-08-07T12:12:32;23.38;;;2.88;;
27985;SDS011;15453;53.692;10.168;2023-08-07T12:14:58;7.03;;;2.33;;
27985;SDS011;15453;53.692;10.168;2023-08-07T12:17:23;6.25;;;2.05;;
27985;SDS011;15453;53.692;10.168;2023-08-07T12:19:49;13.13;;;2.90;;
27985;SDS011;15453;53.692;10.168;2023-08-07T12:22:15;14.10;;;3.05;;
27985;SDS011;15453;53.692;10.168;2023-08-07T12:24:45;21.15;;;2.92;;
27985;SDS011;15453;53.692;10.168;2023-08-07T12:27:10;8.80;;;2.50;;
27985;SDS011;15453;53.692;10.168;2023-08-07T12:29:35;8.45;;;2.38;;
27985;SDS011;15453;53.692;10.168;2023-08-07T12:32:01;6.65;;;2.33;;
27985;SDS011;15453;53.692;10.168;2023-08-07T12:34:28;9.07;;;2.10;;
27985;SDS011;15453;53.692;10.168;2023-08-07T12:36:53;9.02;;;2.45;;
27985;SDS011;15453;53.692;10.168;2023-08-07T12:39:19;11.30;;;2.97;;
27985;SDS011;15453;53.692;10.168;2023-08-07T12:41:45;14.52;;;3.38;;
27985;SDS011;15453;53.692;10.168;2023-08-07T12:44:11;8.40;;;2.20;;
27985;SDS011;15453;53.692;10.168;2023-08-07T12:46:37;10.88;;;2.65;;
27985;SDS011;15453;53.692;10.168;2023-08-07T12:49:03;8.43;;;2.30;;
27985;SDS011;15453;53.692;10.168;2023-08-07T12:51:28;8.15;;;2.53;;
27985;SDS011;15453;53.692;10.168;2023-08-07T12:53:54;8.45;;;2.08;;
27985;SDS011;15453;53.692;10.168;2023-08-07T12:56:19;13.65;;;2.45;;
27985;SDS011;15453;53.692;10.168;2023-08-07T12:58:45;7.93;;;2.05;;
27985;SDS011;15453;53.692;10.168;2023-08-07T13:01:11;13.75;;;3.05;;
27985;SDS011;15453;53.692;10.168;2023-08-07T13:03:38;13.20;;;2.25;;
27985;SDS011;15453;53.692;10.168;2023-08-07T13:06:04;12.48;;;2.50;;
27985;SDS011;15453;53.692;10.168;2023-08-07T13:08:32;10.00;;;2.75;;
27985;SDS011;15453;53.692;10.168;2023-08-07T13:10:58;10.13;;;2.50;;
27985;SDS011;15453;53.692;10.168;2023-08-07T13:13:23;9.57;;;1.92;;
27985;SDS011;15453;53.692;10.168;2023-08-07T13:15:48;10.60;;;3.05;;
27985;SDS011;15453;53.692;10.168;2023-08-07T13:18:14;10.50;;;2.67;;
27985;SDS011;15453;53.692;10.168;2023-08-07T13:20:41;11.35;;;2.30;;
27985;SDS011;15453;53.692;10.168;2023-08-07T13:23:06;14.07;;;3.25;;
27985;SDS011;15453;53.692;10.168;2023-08-07T13:25:32;14.38;;;2.85;;
27985;SDS011;15453;53.692;10.168;2023-08-07T13:27:57;15.18;;;3.53;;
27985;SDS011;15453;53.692;10.168;2023-08-07T13:30:23;14.18;;;3.33;;
27985;SDS011;15453;53.692;10.168;2023-08-07T13:32:48;11.70;;;2.65;;
27985;SDS011;15453;53.692;10.168;2023-08-07T13:35:14;11.60;;;2.85;;
27985;SDS011;15453;53.692;10.168;2023-08-07T13:37:39;11.82;;;3.30;;
27985;SDS011;15453;53.692;10.168;2023-08-07T13:40:05;11.60;;;2.93;;
27985;SDS011;15453;53.692;10.168;2023-08-07T13:42:32;12.73;;;3.03;;
27985;SDS011;15453;53.692;10.168;2023-08-07T13:44:57;18.05;;;6.60;;
27985;SDS011;15453;53.692;10.168;2023-08-07T13:47:23;14.77;;;4.32;;
27985;SDS011;15453;53.692;10.168;2023-08-07T13:49:50;14.70;;;3.72;;
27985;SDS011;15453;53.692;10.168;2023-08-07T13:52:16;11.93;;;3.50;;
27985;SDS011;15453;53.692;10.168;2023-08-07T13:54:41;11.57;;;3.20;;
27985;SDS011;15453;53.692;10.168;2023-08-07T13:57:07;11.68;;;3.33;;
27985;SDS011;15453;53.692;10.168;2023-08-07T13:59:32;9.32;;;3.05;;
27985;SDS011;15453;53.692;10.168;2023-08-07T14:01:58;12.15;;;3.15;;
27985;SDS011;15453;53.692;10.168;2023-08-07T14:04:24;15.75;;;3.30;;
27985;SDS011;15453;53.692;10.168;2023-08-07T14:06:49;11.55;;;3.17;;
27985;SDS011;15453;53.692;10.168;2023-08-07T14:09:14;9.13;;;3.10;;
27985;SDS011;15453;53.692;10.168;2023-08-07T14:11:40;9.32;;;2.85;;
27985;SDS011;15453;53.692;10.168;2023-08-07T14:14:05;12.40;;;3.60;;
27985;SDS011;15453;53.692;10.168;2023-08-07T14:16:30;12.57;;;2.83;;
27985;SDS011;15453;53.692;10.168;2023-08-07T14:18:56;12.90;;;3.60;;
27985;SDS011;15453;53.692;10.168;2023-08-07T14:21:21;12.93;;;3.40;;
27985;SDS011;15453;53.692;10.168;2023-08-07T14:23:47;12.27;;;3.00;;
27985;SDS011;15453;53.692;10.168;2023-08-07T14:26:13;13.13;;;3.00;;
27985;SDS011;15453;53.692;10.168;2023-08-07T14:28:38;11.75;;;3.42;;
27985;SDS011;15453;53.692;10.168;2023-08-07T14:31:07;9.43;;;2.80;;
27985;SDS011;15453;53.692;10.168;2023-08-07T14:33:33;14.52;;;3.25;;
27985;SDS011;15453;53.692;10.168;2023-08-07T14:35:58;15.40;;;3.17;;